Terminal Aerodrome Forecast
Issued by NWS

Home | Current Version | Previous Version | Text Only | Print | Product List | Glossary On
Versions: 1 2 3 4 5 6 7 8 9 10 11 12 13 14 15
123
FTUS46 KMFR 122326
TAFOTH
TAF
KOTH 122326Z 1300/1324 24007KT P6SM BKN040
     FM130700 17006KT P6SM SCT020 BKN040
     FM132100 20008KT P6SM -RA BKN035 OVC050=

USA.gov is the U.S. government's official web portal to all federal, state and local government web resources and services.